Terminal Aerodrome Forecast
Issued by NWS Shreveport, LA

Home | Current Version | Previous Version | Text Only | Print | Product List | Glossary On
Versions: 1 2 3 4 5 6 7 8 9 10 11 12 13
000
FTUS44 KSHV 131720
TAFSHV
TAF
KSHV 131720Z 1318/1418 22012G18KT P6SM FEW280
     FM140000 21005KT P6SM SKC
     FM141400 01005KT P6SM SKC=

USA.gov is the U.S. government's official web portal to all federal, state and local government web resources and services.